sensor_id;sensor_type;location;lat;lon;timestamp;P1;durP1;ratioP1;P2;durP2;ratioP2
67965;SDS011;54749;47.850;9.002;2023-11-19T00:02:20;15.67;;;7.43;;
67965;SDS011;54749;47.850;9.002;2023-11-19T00:04:47;16.73;;;6.32;;
67965;SDS011;54749;47.850;9.002;2023-11-19T00:07:15;15.57;;;6.80;;
67965;SDS011;54749;47.850;9.002;2023-11-19T00:09:46;16.90;;;7.43;;
67965;SDS011;54749;47.850;9.002;2023-11-19T00:12:13;18.90;;;7.60;;
67965;SDS011;54749;47.850;9.002;2023-11-19T00:14:40;17.43;;;7.17;;
67965;SDS011;54749;47.850;9.002;2023-11-19T00:17:08;17.05;;;7.15;;
67965;SDS011;54749;47.850;9.002;2023-11-19T00:19:34;15.68;;;8.13;;
67965;SDS011;54749;47.850;9.002;2023-11-19T00:22:02;21.58;;;9.00;;
67965;SDS011;54749;47.850;9.002;2023-11-19T00:24:30;22.90;;;9.20;;
67965;SDS011;54749;47.850;9.002;2023-11-19T00:26:57;17.13;;;8.17;;
67965;SDS011;54749;47.850;9.002;2023-11-19T00:29:25;19.15;;;8.43;;
67965;SDS011;54749;47.850;9.002;2023-11-19T00:31:52;17.33;;;8.55;;
67965;SDS011;54749;47.850;9.002;2023-11-19T00:34:19;16.15;;;7.97;;
67965;SDS011;54749;47.850;9.002;2023-11-19T00:36:48;18.23;;;9.45;;
67965;SDS011;54749;47.850;9.002;2023-11-19T00:39:16;13.73;;;7.20;;
67965;SDS011;54749;47.850;9.002;2023-11-19T00:41:44;17.52;;;7.82;;
67965;SDS011;54749;47.850;9.002;2023-11-19T00:44:13;14.23;;;6.95;;
67965;SDS011;54749;47.850;9.002;2023-11-19T00:46:40;15.20;;;6.97;;
67965;SDS011;54749;47.850;9.002;2023-11-19T00:49:07;14.07;;;7.00;;
67965;SDS011;54749;47.850;9.002;2023-11-19T00:51:35;11.27;;;5.73;;
67965;SDS011;54749;47.850;9.002;2023-11-19T00:54:01;14.27;;;6.18;;
67965;SDS011;54749;47.850;9.002;2023-11-19T00:56:29;14.23;;;6.60;;
67965;SDS011;54749;47.850;9.002;2023-11-19T00:58:56;13.25;;;6.10;;
67965;SDS011;54749;47.850;9.002;2023-11-19T01:01:23;19.90;;;8.10;;
67965;SDS011;54749;47.850;9.002;2023-11-19T01:03:51;31.87;;;11.90;;
67965;SDS011;54749;47.850;9.002;2023-11-19T01:06:28;44.20;;;16.60;;
67965;SDS011;54749;47.850;9.002;2023-11-19T01:08:58;28.45;;;10.07;;
67965;SDS011;54749;47.850;9.002;2023-11-19T01:11:26;20.48;;;8.15;;
67965;SDS011;54749;47.850;9.002;2023-11-19T01:13:53;15.73;;;7.18;;
67965;SDS011;54749;47.850;9.002;2023-11-19T01:16:21;14.83;;;6.80;;
67965;SDS011;54749;47.850;9.002;2023-11-19T01:18:49;12.55;;;6.45;;
67965;SDS011;54749;47.850;9.002;2023-11-19T01:21:16;12.82;;;6.20;;
67965;SDS011;54749;47.850;9.002;2023-11-19T01:23:44;14.05;;;6.57;;
67965;SDS011;54749;47.850;9.002;2023-11-19T01:26:11;16.65;;;7.88;;
67965;SDS011;54749;47.850;9.002;2023-11-19T01:28:39;15.63;;;7.10;;
67965;SDS011;54749;47.850;9.002;2023-11-19T01:31:14;16.10;;;7.50;;
67965;SDS011;54749;47.850;9.002;2023-11-19T01:33:42;17.58;;;7.90;;
67965;SDS011;54749;47.850;9.002;2023-11-19T01:36:12;16.55;;;7.05;;
67965;SDS011;54749;47.850;9.002;2023-11-19T01:38:40;15.90;;;6.95;;
67965;SDS011;54749;47.850;9.002;2023-11-19T01:41:07;14.23;;;6.63;;
67965;SDS011;54749;47.850;9.002;2023-11-19T01:43:36;13.88;;;6.68;;
67965;SDS011;54749;47.850;9.002;2023-11-19T01:46:05;14.52;;;7.45;;
67965;SDS011;54749;47.850;9.002;2023-11-19T01:48:33;15.75;;;7.15;;
67965;SDS011;54749;47.850;9.002;2023-11-19T01:51:03;13.65;;;6.18;;
67965;SDS011;54749;47.850;9.002;2023-11-19T01:53:30;13.17;;;6.20;;
67965;SDS011;54749;47.850;9.002;2023-11-19T01:56:00;17.25;;;8.00;;
67965;SDS011;54749;47.850;9.002;2023-11-19T01:58:27;17.63;;;8.25;;
67965;SDS011;54749;47.850;9.002;2023-11-19T02:00:57;20.95;;;8.50;;
67965;SDS011;54749;47.850;9.002;2023-11-19T02:03:24;21.67;;;8.82;;
67965;SDS011;54749;47.850;9.002;2023-11-19T02:05:53;32.23;;;10.60;;
67965;SDS011;54749;47.850;9.002;2023-11-19T02:08:20;27.38;;;9.20;;
67965;SDS011;54749;47.850;9.002;2023-11-19T02:10:48;21.45;;;8.00;;
67965;SDS011;54749;47.850;9.002;2023-11-19T02:13:15;16.58;;;6.20;;
67965;SDS011;54749;47.850;9.002;2023-11-19T02:15:43;19.17;;;8.27;;
67965;SDS011;54749;47.850;9.002;2023-11-19T02:18:16;16.37;;;7.57;;
67965;SDS011;54749;47.850;9.002;2023-11-19T02:20:51;16.35;;;6.82;;
67965;SDS011;54749;47.850;9.002;2023-11-19T02:23:18;21.48;;;7.82;;
67965;SDS011;54749;47.850;9.002;2023-11-19T02:25:47;24.30;;;9.73;;
67965;SDS011;54749;47.850;9.002;2023-11-19T02:28:18;47.35;;;21.63;;
67965;SDS011;54749;47.850;9.002;2023-11-19T02:30:46;104.57;;;44.40;;
67965;SDS011;54749;47.850;9.002;2023-11-19T02:33:13;323.20;;;134.63;;
67965;SDS011;54749;47.850;9.002;2023-11-19T02:35:42;168.80;;;69.53;;
67965;SDS011;54749;47.850;9.002;2023-11-19T02:38:09;107.40;;;45.47;;
67965;SDS011;54749;47.850;9.002;2023-11-19T02:40:37;63.33;;;28.20;;
67965;SDS011;54749;47.850;9.002;2023-11-19T02:43:04;40.10;;;18.47;;
67965;SDS011;54749;47.850;9.002;2023-11-19T02:45:32;30.17;;;13.70;;
67965;SDS011;54749;47.850;9.002;2023-11-19T02:47:59;25.40;;;11.95;;
67965;SDS011;54749;47.850;9.002;2023-11-19T02:50:29;20.25;;;9.10;;
67965;SDS011;54749;47.850;9.002;2023-11-19T02:52:56;15.63;;;7.32;;
67965;SDS011;54749;47.850;9.002;2023-11-19T02:55:24;13.67;;;6.23;;
67965;SDS011;54749;47.850;9.002;2023-11-19T02:57:52;12.82;;;5.53;;
67965;SDS011;54749;47.850;9.002;2023-11-19T03:00:21;13.77;;;6.28;;
67965;SDS011;54749;47.850;9.002;2023-11-19T03:02:59;13.65;;;6.15;;
67965;SDS011;54749;47.850;9.002;2023-11-19T03:05:27;12.73;;;5.63;;
67965;SDS011;54749;47.850;9.002;2023-11-19T03:07:57;13.03;;;5.03;;
67965;SDS011;54749;47.850;9.002;2023-11-19T03:10:24;13.68;;;4.90;;
67965;SDS011;54749;47.850;9.002;2023-11-19T03:12:51;10.90;;;4.80;;
67965;SDS011;54749;47.850;9.002;2023-11-19T03:15:19;10.45;;;4.90;;
67965;SDS011;54749;47.850;9.002;2023-11-19T03:17:47;12.68;;;4.85;;
67965;SDS011;54749;47.850;9.002;2023-11-19T03:20:15;15.37;;;5.93;;
67965;SDS011;54749;47.850;9.002;2023-11-19T03:22:43;12.37;;;5.10;;
67965;SDS011;54749;47.850;9.002;2023-11-19T03:25:11;11.35;;;4.65;;
67965;SDS011;54749;47.850;9.002;2023-11-19T03:27:38;9.15;;;3.88;;
67965;SDS011;54749;47.850;9.002;2023-11-19T03:30:08;10.75;;;4.47;;
67965;SDS011;54749;47.850;9.002;2023-11-19T03:32:39;10.93;;;4.93;;
67965;SDS011;54749;47.850;9.002;2023-11-19T03:35:06;13.43;;;4.38;;
67965;SDS011;54749;47.850;9.002;2023-11-19T03:37:34;11.27;;;4.18;;
67965;SDS011;54749;47.850;9.002;2023-11-19T03:40:03;14.43;;;5.00;;
67965;SDS011;54749;47.850;9.002;2023-11-19T03:42:31;8.77;;;4.20;;
67965;SDS011;54749;47.850;9.002;2023-11-19T03:44:58;8.77;;;4.10;;
67965;SDS011;54749;47.850;9.002;2023-11-19T03:47:26;9.45;;;4.40;;
67965;SDS011;54749;47.850;9.002;2023-11-19T03:49:53;9.10;;;4.10;;
67965;SDS011;54749;47.850;9.002;2023-11-19T03:52:20;11.20;;;4.90;;
67965;SDS011;54749;47.850;9.002;2023-11-19T03:54:48;9.48;;;4.10;;
67965;SDS011;54749;47.850;9.002;2023-11-19T03:57:15;11.10;;;4.80;;
67965;SDS011;54749;47.850;9.002;2023-11-19T03:59:42;10.20;;;4.60;;
67965;SDS011;54749;47.850;9.002;2023-11-19T04:02:10;8.23;;;4.20;;
67965;SDS011;54749;47.850;9.002;2023-11-19T04:04:38;8.38;;;3.80;;
67965;SDS011;54749;47.850;9.002;2023-11-19T04:07:08;14.27;;;6.07;;
67965;SDS011;54749;47.850;9.002;2023-11-19T04:09:36;19.07;;;7.83;;
67965;SDS011;54749;47.850;9.002;2023-11-19T04:12:04;17.35;;;7.32;;
67965;SDS011;54749;47.850;9.002;2023-11-19T04:14:31;16.17;;;5.93;;
67965;SDS011;54749;47.850;9.002;2023-11-19T04:16:58;16.50;;;6.97;;
67965;SDS011;54749;47.850;9.002;2023-11-19T04:19:26;19.23;;;7.93;;
67965;SDS011;54749;47.850;9.002;2023-11-19T04:21:53;19.93;;;8.50;;
67965;SDS011;54749;47.850;9.002;2023-11-19T04:24:20;21.08;;;7.82;;
67965;SDS011;54749;47.850;9.002;2023-11-19T04:26:47;17.58;;;7.68;;
67965;SDS011;54749;47.850;9.002;2023-11-19T04:29:15;17.08;;;6.75;;
67965;SDS011;54749;47.850;9.002;2023-11-19T04:31:46;25.30;;;10.27;;
67965;SDS011;54749;47.850;9.002;2023-11-19T04:34:14;26.47;;;10.93;;
67965;SDS011;54749;47.850;9.002;2023-11-19T04:36:41;20.42;;;7.82;;
67965;SDS011;54749;47.850;9.002;2023-11-19T04:39:08;25.00;;;9.43;;
67965;SDS011;54749;47.850;9.002;2023-11-19T04:41:48;17.92;;;6.85;;
67965;SDS011;54749;47.850;9.002;2023-11-19T04:44:16;17.33;;;7.03;;
67965;SDS011;54749;47.850;9.002;2023-11-19T04:46:44;15.17;;;6.50;;
67965;SDS011;54749;47.850;9.002;2023-11-19T04:49:13;24.83;;;8.23;;
67965;SDS011;54749;47.850;9.002;2023-11-19T04:51:41;13.75;;;6.72;;
67965;SDS011;54749;47.850;9.002;2023-11-19T04:54:09;17.30;;;7.72;;
67965;SDS011;54749;47.850;9.002;2023-11-19T04:56:36;18.48;;;6.95;;
67965;SDS011;54749;47.850;9.002;2023-11-19T04:59:04;16.90;;;7.40;;
67965;SDS011;54749;47.850;9.002;2023-11-19T05:01:35;14.80;;;6.85;;
67965;SDS011;54749;47.850;9.002;2023-11-19T05:04:02;13.93;;;6.57;;
67965;SDS011;54749;47.850;9.002;2023-11-19T05:06:30;16.92;;;8.07;;
67965;SDS011;54749;47.850;9.002;2023-11-19T05:08:58;14.85;;;6.78;;
67965;SDS011;54749;47.850;9.002;2023-11-19T05:11:34;21.23;;;8.83;;
67965;SDS011;54749;47.850;9.002;2023-11-19T05:14:02;16.88;;;7.68;;
67965;SDS011;54749;47.850;9.002;2023-11-19T05:16:31;15.02;;;6.95;;
67965;SDS011;54749;47.850;9.002;2023-11-19T05:18:59;16.42;;;7.80;;
67965;SDS011;54749;47.850;9.002;2023-11-19T05:21:26;20.38;;;8.88;;
67965;SDS011;54749;47.850;9.002;2023-11-19T05:23:53;21.27;;;8.97;;
67965;SDS011;54749;47.850;9.002;2023-11-19T05:26:21;19.23;;;8.93;;
67965;SDS011;54749;47.850;9.002;2023-11-19T05:28:51;20.63;;;7.63;;
67965;SDS011;54749;47.850;9.002;2023-11-19T05:31:18;19.48;;;7.80;;
67965;SDS011;54749;47.850;9.002;2023-11-19T05:33:46;16.50;;;7.72;;
67965;SDS011;54749;47.850;9.002;2023-11-19T05:36:13;18.37;;;7.23;;
67965;SDS011;54749;47.850;9.002;2023-11-19T05:38:40;19.23;;;8.77;;
67965;SDS011;54749;47.850;9.002;2023-11-19T05:41:07;17.33;;;7.22;;
67965;SDS011;54749;47.850;9.002;2023-11-19T05:43:34;17.60;;;7.63;;
67965;SDS011;54749;47.850;9.002;2023-11-19T05:46:02;14.27;;;6.82;;
67965;SDS011;54749;47.850;9.002;2023-11-19T05:48:30;17.03;;;7.93;;
67965;SDS011;54749;47.850;9.002;2023-11-19T05:50:57;13.80;;;6.90;;
67965;SDS011;54749;47.850;9.002;2023-11-19T05:53:24;15.88;;;7.65;;
67965;SDS011;54749;47.850;9.002;2023-11-19T05:55:51;15.07;;;6.97;;
67965;SDS011;54749;47.850;9.002;2023-11-19T05:58:23;20.00;;;9.43;;
67965;SDS011;54749;47.850;9.002;2023-11-19T06:00:59;15.40;;;7.30;;
67965;SDS011;54749;47.850;9.002;2023-11-19T06:03:30;17.58;;;7.78;;
67965;SDS011;54749;47.850;9.002;2023-11-19T06:05:57;20.77;;;9.55;;
67965;SDS011;54749;47.850;9.002;2023-11-19T06:08:24;19.20;;;9.45;;
67965;SDS011;54749;47.850;9.002;2023-11-19T06:10:53;25.08;;;11.55;;
67965;SDS011;54749;47.850;9.002;2023-11-19T06:13:21;25.83;;;11.83;;
67965;SDS011;54749;47.850;9.002;2023-11-19T06:15:51;24.70;;;10.68;;
67965;SDS011;54749;47.850;9.002;2023-11-19T06:18:18;19.95;;;9.43;;
67965;SDS011;54749;47.850;9.002;2023-11-19T06:20:47;27.77;;;11.80;;
67965;SDS011;54749;47.850;9.002;2023-11-19T06:23:14;21.02;;;9.23;;
67965;SDS011;54749;47.850;9.002;2023-11-19T06:25:41;23.37;;;8.97;;
67965;SDS011;54749;47.850;9.002;2023-11-19T06:28:09;25.40;;;10.48;;
67965;SDS011;54749;47.850;9.002;2023-11-19T06:30:36;28.13;;;12.43;;
67965;SDS011;54749;47.850;9.002;2023-11-19T06:33:04;54.70;;;22.73;;
67965;SDS011;54749;47.850;9.002;2023-11-19T06:35:31;46.53;;;20.65;;
67965;SDS011;54749;47.850;9.002;2023-11-19T06:38:03;46.35;;;19.50;;
67965;SDS011;54749;47.850;9.002;2023-11-19T06:40:34;30.48;;;14.07;;
67965;SDS011;54749;47.850;9.002;2023-11-19T06:43:04;43.30;;;19.30;;
67965;SDS011;54749;47.850;9.002;2023-11-19T06:45:31;46.33;;;20.48;;
67965;SDS011;54749;47.850;9.002;2023-11-19T06:48:02;75.40;;;33.47;;
67965;SDS011;54749;47.850;9.002;2023-11-19T06:50:32;36.37;;;17.83;;
67965;SDS011;54749;47.850;9.002;2023-11-19T06:53:00;44.53;;;24.05;;
67965;SDS011;54749;47.850;9.002;2023-11-19T06:55:27;29.88;;;15.75;;
67965;SDS011;54749;47.850;9.002;2023-11-19T06:57:54;34.90;;;14.38;;
67965;SDS011;54749;47.850;9.002;2023-11-19T07:00:21;38.35;;;16.65;;
67965;SDS011;54749;47.850;9.002;2023-11-19T07:02:49;35.73;;;16.43;;
67965;SDS011;54749;47.850;9.002;2023-11-19T07:05:18;40.70;;;18.08;;
67965;SDS011;54749;47.850;9.002;2023-11-19T07:07:46;44.40;;;17.02;;
67965;SDS011;54749;47.850;9.002;2023-11-19T07:10:13;53.33;;;17.63;;
67965;SDS011;54749;47.850;9.002;2023-11-19T07:12:41;36.92;;;13.05;;
67965;SDS011;54749;47.850;9.002;2023-11-19T07:15:09;40.70;;;16.47;;
67965;SDS011;54749;47.850;9.002;2023-11-19T07:17:36;30.02;;;11.27;;
67965;SDS011;54749;47.850;9.002;2023-11-19T07:20:03;14.68;;;5.65;;
67965;SDS011;54749;47.850;9.002;2023-11-19T07:22:31;31.10;;;8.95;;
67965;SDS011;54749;47.850;9.002;2023-11-19T07:24:58;45.95;;;12.57;;
67965;SDS011;54749;47.850;9.002;2023-11-19T07:27:26;61.87;;;16.43;;
67965;SDS011;54749;47.850;9.002;2023-11-19T07:29:54;46.88;;;14.43;;
67965;SDS011;54749;47.850;9.002;2023-11-19T07:32:22;37.92;;;12.95;;
67965;SDS011;54749;47.850;9.002;2023-11-19T07:34:49;30.33;;;10.98;;
67965;SDS011;54749;47.850;9.002;2023-11-19T07:37:16;33.40;;;10.75;;
67965;SDS011;54749;47.850;9.002;2023-11-19T07:39:43;28.10;;;9.50;;
67965;SDS011;54749;47.850;9.002;2023-11-19T07:42:11;14.65;;;5.38;;
67965;SDS011;54749;47.850;9.002;2023-11-19T07:44:38;10.27;;;4.05;;
67965;SDS011;54749;47.850;9.002;2023-11-19T07:47:05;8.52;;;3.63;;
67965;SDS011;54749;47.850;9.002;2023-11-19T07:49:32;5.55;;;2.83;;
67965;SDS011;54749;47.850;9.002;2023-11-19T07:51:59;6.67;;;3.30;;
67965;SDS011;54749;47.850;9.002;2023-11-19T07:54:26;6.95;;;3.40;;
67965;SDS011;54749;47.850;9.002;2023-11-19T07:56:54;5.20;;;2.72;;
67965;SDS011;54749;47.850;9.002;2023-11-19T07:59:22;6.43;;;3.20;;
67965;SDS011;54749;47.850;9.002;2023-11-19T08:01:49;6.65;;;3.50;;
67965;SDS011;54749;47.850;9.002;2023-11-19T08:04:16;5.80;;;3.13;;
67965;SDS011;54749;47.850;9.002;2023-11-19T08:06:43;11.15;;;5.00;;
67965;SDS011;54749;47.850;9.002;2023-11-19T08:09:12;16.35;;;6.30;;
67965;SDS011;54749;47.850;9.002;2023-11-19T08:11:41;14.80;;;6.20;;
67965;SDS011;54749;47.850;9.002;2023-11-19T08:14:08;22.48;;;8.77;;
67965;SDS011;54749;47.850;9.002;2023-11-19T08:16:36;18.63;;;8.40;;
67965;SDS011;54749;47.850;9.002;2023-11-19T08:19:04;18.90;;;7.00;;
67965;SDS011;54749;47.850;9.002;2023-11-19T08:21:32;17.00;;;7.10;;
67965;SDS011;54749;47.850;9.002;2023-11-19T08:23:59;13.93;;;5.90;;
67965;SDS011;54749;47.850;9.002;2023-11-19T08:26:26;13.82;;;5.07;;
67965;SDS011;54749;47.850;9.002;2023-11-19T08:28:53;9.27;;;3.90;;
67965;SDS011;54749;47.850;9.002;2023-11-19T08:31:21;22.13;;;7.60;;
67965;SDS011;54749;47.850;9.002;2023-11-19T08:33:48;17.60;;;7.60;;
67965;SDS011;54749;47.850;9.002;2023-11-19T08:36:15;18.35;;;8.57;;
67965;SDS011;54749;47.850;9.002;2023-11-19T08:38:44;14.55;;;7.53;;
67965;SDS011;54749;47.850;9.002;2023-11-19T08:41:11;11.60;;;6.00;;
67965;SDS011;54749;47.850;9.002;2023-11-19T08:43:38;18.80;;;6.35;;
67965;SDS011;54749;47.850;9.002;2023-11-19T08:46:09;29.98;;;9.82;;
67965;SDS011;54749;47.850;9.002;2023-11-19T08:48:37;19.73;;;7.22;;
67965;SDS011;54749;47.850;9.002;2023-11-19T08:51:05;19.15;;;5.95;;
67965;SDS011;54749;47.850;9.002;2023-11-19T08:53:33;13.27;;;5.80;;
67965;SDS011;54749;47.850;9.002;2023-11-19T08:56:01;16.27;;;6.60;;
67965;SDS011;54749;47.850;9.002;2023-11-19T08:58:30;12.70;;;5.63;;
67965;SDS011;54749;47.850;9.002;2023-11-19T09:00:58;8.02;;;3.92;;
67965;SDS011;54749;47.850;9.002;2023-11-19T09:03:25;9.52;;;3.90;;
67965;SDS011;54749;47.850;9.002;2023-11-19T09:05:53;7.13;;;3.13;;
67965;SDS011;54749;47.850;9.002;2023-11-19T09:08:21;8.68;;;4.43;;
67965;SDS011;54749;47.850;9.002;2023-11-19T09:10:48;18.50;;;8.98;;
67965;SDS011;54749;47.850;9.002;2023-11-19T09:13:15;15.43;;;6.15;;
67965;SDS011;54749;47.850;9.002;2023-11-19T09:15:42;30.17;;;9.90;;
67965;SDS011;54749;47.850;9.002;2023-11-19T09:18:09;23.80;;;7.87;;
67965;SDS011;54749;47.850;9.002;2023-11-19T09:20:37;66.75;;;17.67;;
67965;SDS011;54749;47.850;9.002;2023-11-19T09:23:06;24.58;;;8.95;;
67965;SDS011;54749;47.850;9.002;2023-11-19T09:25:34;13.27;;;4.93;;
67965;SDS011;54749;47.850;9.002;2023-11-19T09:28:03;7.03;;;3.10;;
67965;SDS011;54749;47.850;9.002;2023-11-19T09:30:31;6.87;;;3.27;;
67965;SDS011;54749;47.850;9.002;2023-11-19T09:33:01;8.27;;;3.30;;
67965;SDS011;54749;47.850;9.002;2023-11-19T09:35:28;7.25;;;3.10;;
67965;SDS011;54749;47.850;9.002;2023-11-19T09:37:55;8.65;;;4.13;;
67965;SDS011;54749;47.850;9.002;2023-11-19T09:40:23;10.52;;;4.40;;
67965;SDS011;54749;47.850;9.002;2023-11-19T09:42:50;7.13;;;3.20;;
67965;SDS011;54749;47.850;9.002;2023-11-19T09:45:17;5.15;;;2.83;;
67965;SDS011;54749;47.850;9.002;2023-11-19T09:47:47;10.07;;;3.30;;
67965;SDS011;54749;47.850;9.002;2023-11-19T09:50:20;9.18;;;3.80;;
67965;SDS011;54749;47.850;9.002;2023-11-19T09:52:47;11.32;;;4.35;;
67965;SDS011;54749;47.850;9.002;2023-11-19T09:55:15;6.03;;;2.60;;
67965;SDS011;54749;47.850;9.002;2023-11-19T09:57:42;5.70;;;2.58;;
67965;SDS011;54749;47.850;9.002;2023-11-19T10:00:12;6.10;;;2.67;;
67965;SDS011;54749;47.850;9.002;2023-11-19T10:02:42;4.75;;;1.70;;
67965;SDS011;54749;47.850;9.002;2023-11-19T10:05:14;5.65;;;2.20;;
67965;SDS011;54749;47.850;9.002;2023-11-19T10:07:42;18.77;;;9.13;;
67965;SDS011;54749;47.850;9.002;2023-11-19T10:10:10;8.52;;;3.90;;
67965;SDS011;54749;47.850;9.002;2023-11-19T10:12:40;15.73;;;8.00;;
67965;SDS011;54749;47.850;9.002;2023-11-19T10:15:24;12.93;;;5.30;;
67965;SDS011;54749;47.850;9.002;2023-11-19T10:17:57;11.95;;;4.68;;
67965;SDS011;54749;47.850;9.002;2023-11-19T10:20:25;21.60;;;8.30;;
67965;SDS011;54749;47.850;9.002;2023-11-19T10:22:53;17.88;;;6.90;;
67965;SDS011;54749;47.850;9.002;2023-11-19T10:25:25;20.48;;;8.20;;
67965;SDS011;54749;47.850;9.002;2023-11-19T10:27:54;27.92;;;16.08;;
67965;SDS011;54749;47.850;9.002;2023-11-19T10:30:25;16.92;;;7.80;;
67965;SDS011;54749;47.850;9.002;2023-11-19T10:33:29;9.93;;;3.40;;
67965;SDS011;54749;47.850;9.002;2023-11-19T10:35:55;15.80;;;5.28;;
67965;SDS011;54749;47.850;9.002;2023-11-19T10:38:27;9.18;;;3.38;;
67965;SDS011;54749;47.850;9.002;2023-11-19T10:40:54;11.38;;;4.68;;
67965;SDS011;54749;47.850;9.002;2023-11-19T10:43:21;9.75;;;3.40;;
67965;SDS011;54749;47.850;9.002;2023-11-19T10:45:50;5.97;;;2.23;;
67965;SDS011;54749;47.850;9.002;2023-11-19T10:48:18;5.43;;;1.90;;
67965;SDS011;54749;47.850;9.002;2023-11-19T10:50:49;12.93;;;3.15;;
67965;SDS011;54749;47.850;9.002;2023-11-19T10:53:19;12.52;;;3.60;;
67965;SDS011;54749;47.850;9.002;2023-11-19T10:55:49;9.75;;;3.92;;
67965;SDS011;54749;47.850;9.002;2023-11-19T10:58:16;12.10;;;4.40;;
67965;SDS011;54749;47.850;9.002;2023-11-19T11:00:51;15.57;;;4.88;;
67965;SDS011;54749;47.850;9.002;2023-11-19T11:03:21;39.63;;;18.05;;
67965;SDS011;54749;47.850;9.002;2023-11-19T11:05:52;29.17;;;15.90;;
67965;SDS011;54749;47.850;9.002;2023-11-19T11:08:20;13.40;;;6.55;;
67965;SDS011;54749;47.850;9.002;2023-11-19T11:10:51;12.67;;;2.67;;
67965;SDS011;54749;47.850;9.002;2023-11-19T11:13:23;7.18;;;2.35;;
67965;SDS011;54749;47.850;9.002;2023-11-19T11:15:51;16.25;;;5.43;;
67965;SDS011;54749;47.850;9.002;2023-11-19T11:18:18;13.82;;;3.88;;
67965;SDS011;54749;47.850;9.002;2023-11-19T11:20:46;8.35;;;3.00;;
67965;SDS011;54749;47.850;9.002;2023-11-19T11:26:05;11.73;;;3.05;;
67965;SDS011;54749;47.850;9.002;2023-11-19T11:28:57;12.55;;;3.53;;
67965;SDS011;54749;47.850;9.002;2023-11-19T11:31:51;13.07;;;3.10;;
67965;SDS011;54749;47.850;9.002;2023-11-19T11:38:06;20.27;;;5.60;;
67965;SDS011;54749;47.850;9.002;2023-11-19T11:40:34;19.02;;;6.40;;
67965;SDS011;54749;47.850;9.002;2023-11-19T11:43:02;17.00;;;6.53;;
67965;SDS011;54749;47.850;9.002;2023-11-19T11:45:36;18.83;;;6.47;;
67965;SDS011;54749;47.850;9.002;2023-11-19T11:48:05;15.95;;;6.10;;
67965;SDS011;54749;47.850;9.002;2023-11-19T11:50:35;30.10;;;9.50;;
67965;SDS011;54749;47.850;9.002;2023-11-19T11:53:16;19.00;;;5.85;;
67965;SDS011;54749;47.850;9.002;2023-11-19T11:58:17;19.33;;;5.40;;
67965;SDS011;54749;47.850;9.002;2023-11-19T12:00:45;17.10;;;5.20;;
67965;SDS011;54749;47.850;9.002;2023-11-19T12:03:16;12.13;;;4.27;;
67965;SDS011;54749;47.850;9.002;2023-11-19T12:05:47;7.03;;;2.80;;
67965;SDS011;54749;47.850;9.002;2023-11-19T12:08:18;5.85;;;2.42;;
67965;SDS011;54749;47.850;9.002;2023-11-19T12:10:53;7.57;;;3.20;;
67965;SDS011;54749;47.850;9.002;2023-11-19T12:13:29;6.45;;;2.75;;
67965;SDS011;54749;47.850;9.002;2023-11-19T12:16:12;6.93;;;3.10;;
67965;SDS011;54749;47.850;9.002;2023-11-19T12:18:40;6.70;;;2.50;;
67965;SDS011;54749;47.850;9.002;2023-11-19T12:21:08;6.70;;;3.00;;
67965;SDS011;54749;47.850;9.002;2023-11-19T12:23:43;11.95;;;3.88;;
67965;SDS011;54749;47.850;9.002;2023-11-19T12:26:30;15.30;;;4.85;;
67965;SDS011;54749;47.850;9.002;2023-11-19T12:29:00;11.77;;;3.43;;
67965;SDS011;54749;47.850;9.002;2023-11-19T12:31:30;8.02;;;3.17;;
67965;SDS011;54749;47.850;9.002;2023-11-19T12:33:58;6.45;;;3.10;;
67965;SDS011;54749;47.850;9.002;2023-11-19T12:36:25;9.95;;;4.30;;
67965;SDS011;54749;47.850;9.002;2023-11-19T12:38:52;10.07;;;4.75;;
67965;SDS011;54749;47.850;9.002;2023-11-19T12:41:20;13.87;;;6.50;;
67965;SDS011;54749;47.850;9.002;2023-11-19T12:43:50;21.17;;;8.98;;
67965;SDS011;54749;47.850;9.002;2023-11-19T12:46:20;13.43;;;6.35;;
67965;SDS011;54749;47.850;9.002;2023-11-19T12:48:50;12.00;;;6.63;;
67965;SDS011;54749;47.850;9.002;2023-11-19T12:51:17;23.73;;;15.60;;
67965;SDS011;54749;47.850;9.002;2023-11-19T12:53:49;35.67;;;24.10;;
67965;SDS011;54749;47.850;9.002;2023-11-19T12:56:21;58.67;;;42.58;;
67965;SDS011;54749;47.850;9.002;2023-11-19T12:58:49;41.05;;;28.00;;
67965;SDS011;54749;47.850;9.002;2023-11-19T13:01:17;19.13;;;9.70;;
67965;SDS011;54749;47.850;9.002;2023-11-19T13:03:47;16.65;;;10.02;;
67965;SDS011;54749;47.850;9.002;2023-11-19T13:06:18;24.87;;;15.70;;
67965;SDS011;54749;47.850;9.002;2023-11-19T13:08:51;24.20;;;16.40;;
67965;SDS011;54749;47.850;9.002;2023-11-19T13:11:31;30.75;;;18.80;;
67965;SDS011;54749;47.850;9.002;2023-11-19T13:14:00;11.18;;;6.30;;
67965;SDS011;54749;47.850;9.002;2023-11-19T13:16:32;16.33;;;8.02;;
67965;SDS011;54749;47.850;9.002;2023-11-19T13:18:59;13.27;;;5.80;;
67965;SDS011;54749;47.850;9.002;2023-11-19T13:21:27;13.23;;;5.50;;
67965;SDS011;54749;47.850;9.002;2023-11-19T13:23:55;25.55;;;13.20;;
67965;SDS011;54749;47.850;9.002;2023-11-19T13:26:22;25.13;;;11.50;;
67965;SDS011;54749;47.850;9.002;2023-11-19T13:28:50;18.70;;;8.98;;
67965;SDS011;54749;47.850;9.002;2023-11-19T13:31:17;26.90;;;13.57;;
67965;SDS011;54749;47.850;9.002;2023-11-19T13:33:44;21.73;;;11.05;;
67965;SDS011;54749;47.850;9.002;2023-11-19T13:36:12;17.58;;;7.75;;
67965;SDS011;54749;47.850;9.002;2023-11-19T13:38:43;36.08;;;12.43;;
67965;SDS011;54749;47.850;9.002;2023-11-19T13:41:14;25.98;;;11.65;;
67965;SDS011;54749;47.850;9.002;2023-11-19T13:43:41;16.97;;;8.67;;
67965;SDS011;54749;47.850;9.002;2023-11-19T13:46:08;25.02;;;10.93;;
67965;SDS011;54749;47.850;9.002;2023-11-19T13:48:39;15.23;;;5.85;;
67965;SDS011;54749;47.850;9.002;2023-11-19T13:51:06;13.48;;;4.50;;
67965;SDS011;54749;47.850;9.002;2023-11-19T13:53:33;32.08;;;13.65;;
67965;SDS011;54749;47.850;9.002;2023-11-19T13:56:03;28.67;;;17.43;;
67965;SDS011;54749;47.850;9.002;2023-11-19T13:58:31;33.33;;;20.05;;
67965;SDS011;54749;47.850;9.002;2023-11-19T14:00:58;22.17;;;10.63;;
67965;SDS011;54749;47.850;9.002;2023-11-19T14:03:25;17.60;;;7.00;;
67965;SDS011;54749;47.850;9.002;2023-11-19T14:05:53;11.90;;;3.40;;
67965;SDS011;54749;47.850;9.002;2023-11-19T14:08:22;14.83;;;4.03;;
67965;SDS011;54749;47.850;9.002;2023-11-19T14:10:51;9.18;;;3.10;;
67965;SDS011;54749;47.850;9.002;2023-11-19T14:13:23;9.93;;;3.20;;
67965;SDS011;54749;47.850;9.002;2023-11-19T14:15:50;11.45;;;3.10;;
67965;SDS011;54749;47.850;9.002;2023-11-19T14:18:18;8.43;;;3.00;;
67965;SDS011;54749;47.850;9.002;2023-11-19T14:20:45;4.67;;;1.43;;
67965;SDS011;54749;47.850;9.002;2023-11-19T14:23:13;6.25;;;1.80;;
67965;SDS011;54749;47.850;9.002;2023-11-19T14:25:40;10.07;;;3.45;;
67965;SDS011;54749;47.850;9.002;2023-11-19T14:28:07;8.50;;;3.53;;
67965;SDS011;54749;47.850;9.002;2023-11-19T14:30:34;20.10;;;7.03;;
67965;SDS011;54749;47.850;9.002;2023-11-19T14:33:02;15.03;;;7.00;;
67965;SDS011;54749;47.850;9.002;2023-11-19T14:35:30;10.38;;;5.68;;
67965;SDS011;54749;47.850;9.002;2023-11-19T14:38:00;11.85;;;5.40;;
67965;SDS011;54749;47.850;9.002;2023-11-19T14:40:27;11.60;;;4.88;;
67965;SDS011;54749;47.850;9.002;2023-11-19T14:42:57;17.75;;;10.43;;
67965;SDS011;54749;47.850;9.002;2023-11-19T14:45:24;22.30;;;14.20;;
67965;SDS011;54749;47.850;9.002;2023-11-19T14:47:51;9.70;;;5.03;;
67965;SDS011;54749;47.850;9.002;2023-11-19T14:50:19;11.90;;;6.57;;
67965;SDS011;54749;47.850;9.002;2023-11-19T14:52:46;21.13;;;13.45;;